Time;durP1;ratioP1;P1;durP2;ratioP2;P2;SDS_P1;SDS_P2;PMS_P1;PMS_P2;Temp;Humidity;BMP_temperature;BMP_pressure;BME280_temperature;BME280_humidity;BME280_pressure;Samples;Min_cycle;Max_cycle;Signal;HPM_P1;HPM_P2
2022/01/15 00:01:45;;;;;;;98.35;51.20;;;6.10;99.90;;;;;;5030725;28;20100;-58
2022/01/15 00:04:11;;;;;;;103.88;53.47;;;6.00;99.90;;;;;;5030916;28;20071;-58
2022/01/15 00:06:37;;;;;;;105.35;52.80;;;6.10;99.90;;;;;;5029098;28;20051;-58
2022/01/15 00:09:04;;;;;;;96.60;49.88;;;5.90;99.90;;;;;;5029607;28;20029;-58
2022/01/15 00:11:30;;;;;;;94.72;50.55;;;5.70;99.90;;;;;;5028817;28;20025;-58
2022/01/15 00:14:08;;;;;;;91.65;48.97;;;5.60;99.90;;;;;;5030180;28;20490;-58
2022/01/15 00:16:45;;;;;;;94.18;49.83;;;5.60;99.90;;;;;;5030499;28;20021;-58
2022/01/15 00:19:14;;;;;;;96.55;48.58;;;5.60;99.90;;;;;;5030333;28;20506;-58
2022/01/15 00:21:39;;;;;;;92.65;49.67;;;5.50;99.90;;;;;;5028635;28;20028;-58
2022/01/15 00:24:06;;;;;;;92.63;49.55;;;5.60;99.90;;;;;;5029999;28;20022;-59
2022/01/15 00:26:32;;;;;;;101.30;51.25;;;5.60;99.90;;;;;;5029990;28;20026;-59
2022/01/15 00:28:58;;;;;;;102.35;51.92;;;5.90;99.90;;;;;;5028700;28;20037;-59
2022/01/15 00:31:24;;;;;;;94.15;50.65;;;6.00;99.90;;;;;;5030521;28;20033;-59
2022/01/15 00:33:50;;;;;;;94.15;49.95;;;5.90;99.90;;;;;;5028853;28;20025;-59
2022/01/15 00:36:18;;;;;;;97.40;50.67;;;5.70;99.90;;;;;;5030085;28;20048;-59
2022/01/15 00:38:44;;;;;;;106.43;52.17;;;5.80;99.90;;;;;;5028729;28;20078;-59
2022/01/15 00:41:11;;;;;;;95.68;49.72;;;5.90;99.90;;;;;;5028969;28;20088;-59
2022/01/15 00:43:36;;;;;;;94.18;49.67;;;5.70;99.90;;;;;;5028975;28;20388;-59
2022/01/15 00:46:02;;;;;;;107.05;53.25;;;5.80;99.90;;;;;;5030304;28;20021;-59
2022/01/15 00:48:28;;;;;;;103.25;52.20;;;5.90;99.90;;;;;;5029936;28;20026;-59
2022/01/15 00:50:54;;;;;;;110.25;54.55;;;5.90;99.90;;;;;;5029947;28;20030;-58
2022/01/15 00:53:20;;;;;;;109.28;53.58;;;5.90;99.90;;;;;;5030171;28;20029;-58
2022/01/15 00:55:45;;;;;;;111.20;54.28;;;6.10;99.90;;;;;;5029277;28;20033;-58
2022/01/15 00:58:12;;;;;;;110.00;53.33;;;6.00;99.90;;;;;;5029261;28;20030;-58
2022/01/15 01:00:38;;;;;;;115.00;54.03;;;6.00;99.90;;;;;;5031968;28;20032;-58
2022/01/15 01:03:04;;;;;;;103.57;52.00;;;6.10;99.90;;;;;;5033228;28;20030;-58
2022/01/15 01:05:29;;;;;;;111.05;54.40;;;6.10;99.90;;;;;;5033030;28;20558;-58
2022/01/15 01:07:56;;;;;;;103.35;50.95;;;5.90;99.90;;;;;;5032909;28;20483;-58
2022/01/15 01:24:04;;;;;;;110.78;51.25;;;5.80;99.90;;;;;;4991660;28;20038;-59
2022/01/15 01:26:39;;;;;;;99.88;49.53;;;5.60;99.90;;;;;;5024490;28;20393;-59
2022/01/15 01:29:22;;;;;;;103.03;49.53;;;5.50;99.90;;;;;;5033368;28;20037;-59
2022/01/15 01:32:06;;;;;;;;;;;5.40;99.90;;;;;;5034020;28;20037;-59
2022/01/15 01:34:35;;;;;;;95.90;44.50;;;5.40;99.90;;;;;;5048585;28;19905;-59
2022/01/15 01:37:38;;;;;;;93.90;45.72;;;5.20;99.90;;;;;;5031454;28;20033;-59
2022/01/15 01:40:06;;;;;;;97.28;45.42;;;5.10;99.90;;;;;;5030341;28;20393;-59
2022/01/15 01:42:41;;;;;;;95.82;47.70;;;5.10;99.90;;;;;;5031329;28;20026;-59
2022/01/15 01:45:14;;;;;;;90.18;47.15;;;5.10;99.90;;;;;;5032715;28;20032;-59
2022/01/15 01:47:43;;;;;;;91.80;45.90;;;5.20;99.90;;;;;;5031221;28;20061;-59
2022/01/15 01:50:24;;;;;;;98.75;46.42;;;5.20;99.90;;;;;;5031015;28;20029;-59
2022/01/15 01:52:52;;;;;;;95.35;46.35;;;5.40;99.90;;;;;;5032197;28;20025;-59
2022/01/15 01:55:22;;;;;;;96.47;47.85;;;5.30;99.90;;;;;;5032888;28;20112;-59
2022/01/15 01:57:48;;;;;;;96.90;47.50;;;5.30;99.90;;;;;;5032826;28;20160;-59
2022/01/15 02:00:16;;;;;;;96.38;49.85;;;5.20;99.90;;;;;;5032572;28;20446;-59
2022/01/15 02:02:41;;;;;;;101.78;49.22;;;5.40;99.90;;;;;;5032499;28;20076;-59
2022/01/15 02:05:08;;;;;;;92.30;45.75;;;5.50;99.90;;;;;;5032013;28;20052;-59
2022/01/15 02:07:35;;;;;;;99.32;48.03;;;5.40;99.90;;;;;;5032751;28;20022;-59
2022/01/15 02:10:01;;;;;;;94.80;47.33;;;5.30;99.90;;;;;;5031408;28;20647;-59
2022/01/15 02:12:27;;;;;;;101.53;48.40;;;5.30;99.90;;;;;;5032104;28;20029;-59
2022/01/15 02:14:52;;;;;;;100.18;49.15;;;5.50;99.90;;;;;;5031000;28;20025;-59
2022/01/15 02:17:19;;;;;;;100.45;49.03;;;5.70;99.90;;;;;;5031202;28;20449;-59
2022/01/15 02:20:09;;;;;;;101.75;49.03;;;5.70;99.90;;;;;;5032512;28;20021;-59
2022/01/15 02:25:16;;;;;;;102.88;49.03;;;5.50;99.90;;;;;;5032503;28;20028;-59
2022/01/15 02:27:42;;;;;;;101.60;49.08;;;5.60;99.90;;;;;;5032173;28;20053;-59
2022/01/15 02:30:08;;;;;;;105.15;48.90;;;5.50;99.90;;;;;;5030259;28;20116;-59
2022/01/15 02:32:35;;;;;;;98.20;47.75;;;5.30;99.90;;;;;;5031352;28;20249;-59
2022/01/15 02:35:02;;;;;;;100.38;47.38;;;5.30;99.90;;;;;;5031521;28;20053;-59
2022/01/15 02:37:31;;;;;;;100.05;48.38;;;5.30;99.90;;;;;;5031883;28;20025;-59
2022/01/15 02:39:58;;;;;;;93.10;47.42;;;5.20;99.90;;;;;;5033019;28;20029;-60
2022/01/15 02:42:26;;;;;;;103.03;48.97;;;5.10;99.90;;;;;;5031436;28;20040;-59
2022/01/15 02:44:59;;;;;;;101.20;48.72;;;5.30;99.90;;;;;;5032048;28;20025;-59
2022/01/15 02:50:09;;;;;;;97.35;47.47;;;5.10;99.90;;;;;;5031935;28;20032;-59
2022/01/15 02:52:35;;;;;;;107.25;50.60;;;5.10;99.90;;;;;;5031405;28;20018;-59
2022/01/15 02:55:00;;;;;;;95.25;48.22;;;4.90;99.90;;;;;;5031508;28;20048;-59
2022/01/15 02:57:26;;;;;;;101.97;47.05;;;4.80;99.90;;;;;;5029613;28;20078;-59
2022/01/15 02:59:51;;;;;;;103.75;49.55;;;4.70;99.90;;;;;;5031745;28;20052;-59
2022/01/15 03:02:17;;;;;;;105.38;48.60;;;4.70;99.90;;;;;;5031178;28;20108;-59
2022/01/15 03:04:43;;;;;;;104.47;51.58;;;4.60;99.90;;;;;;5031452;28;20033;-59
2022/01/15 03:07:08;;;;;;;100.55;48.38;;;4.50;99.90;;;;;;5031024;28;20036;-59
2022/01/15 03:09:34;;;;;;;111.85;51.90;;;4.40;99.90;;;;;;5030436;28;20025;-59
2022/01/15 03:12:02;;;;;;;104.75;52.85;;;4.40;99.90;;;;;;5031529;28;20104;-59
2022/01/15 03:14:30;;;;;;;108.78;50.67;;;4.40;99.90;;;;;;5031382;28;20032;-59
2022/01/15 03:16:56;;;;;;;113.25;52.10;;;4.40;99.90;;;;;;5031061;28;20033;-59
2022/01/15 03:19:22;;;;;;;111.97;51.72;;;4.40;99.90;;;;;;5030388;28;20029;-59
2022/01/15 03:21:47;;;;;;;117.22;54.10;;;4.30;99.90;;;;;;5030348;28;20107;-59
2022/01/15 03:24:13;;;;;;;117.57;55.47;;;4.40;99.90;;;;;;5029652;28;20053;-59
2022/01/15 03:26:39;;;;;;;119.75;54.85;;;4.40;99.90;;;;;;5030669;28;20022;-59
2022/01/15 03:29:04;;;;;;;121.32;56.95;;;4.70;99.90;;;;;;5030830;28;20021;-59
2022/01/15 03:31:30;;;;;;;115.70;54.20;;;4.50;99.90;;;;;;5030321;28;20438;-59
2022/01/15 03:33:56;;;;;;;116.93;54.17;;;4.40;99.90;;;;;;5029694;28;20025;-59
2022/01/15 03:36:21;;;;;;;115.53;54.45;;;4.30;99.90;;;;;;5029509;28;20048;-59
2022/01/15 03:38:47;;;;;;;125.50;56.90;;;4.30;99.90;;;;;;5030427;28;20025;-59
2022/01/15 03:41:13;;;;;;;123.50;57.35;;;4.20;99.90;;;;;;5030809;28;20390;-59
2022/01/15 03:43:39;;;;;;;125.43;55.53;;;4.20;99.90;;;;;;5030287;28;20028;-59
2022/01/15 03:46:04;;;;;;;119.72;56.30;;;4.20;99.90;;;;;;5029503;28;20021;-59
2022/01/15 03:48:30;;;;;;;116.55;55.35;;;4.30;99.90;;;;;;5030787;28;20045;-59
2022/01/15 03:50:56;;;;;;;114.97;52.05;;;4.20;99.90;;;;;;5030566;28;20064;-59
2022/01/15 03:53:22;;;;;;;120.55;56.13;;;4.10;99.90;;;;;;5030703;28;20433;-59
2022/01/15 03:55:49;;;;;;;114.28;53.65;;;4.00;99.90;;;;;;5030860;28;20021;-59
2022/01/15 03:58:15;;;;;;;116.18;54.85;;;4.00;99.90;;;;;;5031080;28;20032;-59
2022/01/15 04:00:40;;;;;;;124.57;56.83;;;3.90;99.90;;;;;;5030266;28;20033;-59
2022/01/15 04:03:06;;;;;;;115.95;53.75;;;3.90;99.90;;;;;;5028942;28;20556;-59
2022/01/15 04:05:32;;;;;;;127.53;53.95;;;4.00;99.90;;;;;;5030688;28;20029;-59
2022/01/15 04:07:58;;;;;;;133.65;57.40;;;4.10;99.90;;;;;;5029084;28;20030;-59
2022/01/15 04:10:24;;;;;;;131.68;57.63;;;4.20;99.90;;;;;;5030995;28;20099;-59
2022/01/15 04:12:49;;;;;;;130.50;56.92;;;4.10;99.90;;;;;;5030775;28;20025;-59
2022/01/15 04:15:16;;;;;;;134.02;57.40;;;3.90;99.90;;;;;;5030717;28;20304;-59
2022/01/15 04:17:45;;;;;;;132.55;60.08;;;3.90;99.90;;;;;;5030879;28;20022;-59
2022/01/15 04:20:11;;;;;;;131.65;58.47;;;3.90;99.90;;;;;;5029206;28;20080;-59
2022/01/15 04:22:37;;;;;;;137.48;60.42;;;4.00;99.90;;;;;;5030365;28;20017;-59
2022/01/15 04:25:04;;;;;;;130.98;60.47;;;4.10;99.90;;;;;;5030098;28;20034;-59
2022/01/15 04:27:29;;;;;;;130.32;56.80;;;4.10;99.90;;;;;;5030273;28;20049;-59
2022/01/15 04:29:56;;;;;;;125.43;56.80;;;4.10;99.90;;;;;;5029882;28;20036;-59
2022/01/15 04:32:22;;;;;;;132.68;59.75;;;4.00;99.90;;;;;;5028247;28;20045;-59
2022/01/15 04:34:48;;;;;;;131.30;58.33;;;3.90;99.90;;;;;;5031591;28;20386;-59
2022/01/15 04:37:19;;;;;;;132.73;59.00;;;3.90;99.90;;;;;;5032855;28;20029;-59
2022/01/15 04:39:45;;;;;;;125.80;59.58;;;3.90;99.90;;;;;;5033877;28;20025;-59
2022/01/15 04:42:11;;;;;;;135.70;60.47;;;4.00;99.90;;;;;;5034370;28;20158;-59
2022/01/15 04:44:38;;;;;;;127.38;59.15;;;4.00;99.90;;;;;;5034303;28;20501;-59
2022/01/15 04:47:05;;;;;;;129.15;59.80;;;4.00;99.90;;;;;;5032668;28;20033;-59
2022/01/15 04:49:31;;;;;;;127.38;56.28;;;4.00;99.90;;;;;;5034361;28;20132;-59
2022/01/15 04:51:57;;;;;;;122.60;58.55;;;4.00;99.90;;;;;;5032681;28;20017;-59
2022/01/15 04:54:22;;;;;;;125.75;57.28;;;3.90;99.90;;;;;;5033830;28;20521;-59
2022/01/15 04:56:48;;;;;;;118.38;54.42;;;3.90;99.90;;;;;;5033958;28;20026;-59
2022/01/15 04:59:14;;;;;;;121.60;56.90;;;3.80;99.90;;;;;;5032678;28;20459;-59
2022/01/15 05:01:39;;;;;;;129.13;59.92;;;3.70;99.90;;;;;;5032671;28;20391;-59
2022/01/15 05:04:05;;;;;;;129.13;58.10;;;3.70;99.90;;;;;;5032855;28;20033;-60
2022/01/15 05:06:31;;;;;;;132.50;59.00;;;3.70;99.90;;;;;;5033848;28;20045;-59
2022/01/15 05:09:04;;;;;;;142.05;61.92;;;3.80;99.90;;;;;;5032382;28;20029;-59
2022/01/15 05:11:43;;;;;;;138.70;60.80;;;3.90;99.90;;;;;;5032273;28;20018;-59
2022/01/15 05:14:10;;;;;;;135.02;59.35;;;3.80;99.90;;;;;;5033984;28;20022;-59
2022/01/15 05:16:36;;;;;;;129.07;58.58;;;3.80;99.90;;;;;;5033335;28;20028;-59
2022/01/15 05:19:02;;;;;;;135.75;59.97;;;3.70;99.90;;;;;;5032032;28;20014;-59
2022/01/15 05:21:28;;;;;;;135.07;60.63;;;4.00;99.90;;;;;;5032821;28;20206;-59
2022/01/15 05:23:53;;;;;;;130.50;58.53;;;4.00;99.90;;;;;;5033429;28;20390;-59
2022/01/15 05:26:19;;;;;;;128.57;58.70;;;3.90;99.90;;;;;;5032749;28;20025;-59
2022/01/15 05:28:44;;;;;;;128.55;57.22;;;3.80;99.90;;;;;;5033054;28;20073;-59
2022/01/15 05:31:10;;;;;;;122.32;53.92;;;3.80;99.90;;;;;;5031962;28;20025;-60
2022/01/15 05:33:35;;;;;;;128.52;57.45;;;3.70;99.90;;;;;;5033683;28;20104;-59
2022/01/15 05:36:01;;;;;;;138.35;60.65;;;3.60;99.90;;;;;;5031783;28;20028;-59
2022/01/15 05:38:27;;;;;;;123.88;57.35;;;3.60;99.90;;;;;;5032925;28;20037;-59
2022/01/15 05:40:52;;;;;;;131.27;57.85;;;3.50;99.90;;;;;;5033035;28;20441;-59
2022/01/15 05:43:18;;;;;;;122.80;55.85;;;3.60;99.90;;;;;;5031914;28;20425;-59
2022/01/15 05:45:45;;;;;;;126.47;54.72;;;3.60;99.90;;;;;;5032052;28;20025;-59
2022/01/15 05:48:10;;;;;;;124.22;54.17;;;3.50;99.90;;;;;;5030942;28;20061;-59
2022/01/15 05:50:36;;;;;;;132.18;57.40;;;3.50;99.90;;;;;;5032732;28;20195;-59
2022/01/15 05:53:02;;;;;;;129.10;56.15;;;3.40;99.90;;;;;;5032618;28;20026;-59
2022/01/15 05:55:27;;;;;;;129.23;51.47;;;3.30;99.90;;;;;;5033161;28;20076;-59
2022/01/15 05:57:53;;;;;;;136.43;58.08;;;3.30;99.90;;;;;;5032817;28;20510;-59
2022/01/15 06:00:19;;;;;;;131.27;54.75;;;3.20;99.90;;;;;;5032671;28;20116;-59
2022/01/15 06:02:44;;;;;;;139.68;59.20;;;3.20;99.90;;;;;;5032403;28;20025;-59
2022/01/15 06:05:10;;;;;;;137.93;57.40;;;3.20;99.90;;;;;;5032505;28;20081;-59
2022/01/15 06:07:36;;;;;;;119.13;51.25;;;3.20;99.90;;;;;;5030972;28;20076;-59
2022/01/15 06:10:02;;;;;;;124.75;53.78;;;3.10;99.90;;;;;;5031222;28;20033;-59
2022/01/15 06:12:31;;;;;;;128.77;55.00;;;3.10;99.90;;;;;;5032021;28;20037;-59
2022/01/15 06:14:57;;;;;;;136.65;54.92;;;3.10;99.90;;;;;;5032632;28;20039;-59
2022/01/15 06:17:23;;;;;;;137.25;53.67;;;3.20;99.90;;;;;;5032525;28;20052;-59
2022/01/15 06:19:48;;;;;;;138.52;55.35;;;3.20;99.90;;;;;;5032364;28;20117;-60
2022/01/15 06:22:14;;;;;;;133.85;54.97;;;3.30;99.90;;;;;;5031944;28;20025;-59
2022/01/15 06:24:40;;;;;;;132.32;54.47;;;3.20;99.90;;;;;;5032405;28;20534;-59
2022/01/15 06:27:08;;;;;;;138.02;55.97;;;3.30;99.90;;;;;;5031967;28;20049;-59
2022/01/15 06:29:34;;;;;;;144.18;57.00;;;3.30;99.90;;;;;;5030346;28;20029;-59
2022/01/15 06:32:00;;;;;;;140.93;57.83;;;3.40;99.90;;;;;;5031662;28;20029;-59
2022/01/15 06:34:25;;;;;;;150.38;57.33;;;3.40;99.90;;;;;;5031556;28;20032;-60
2022/01/15 06:36:51;;;;;;;157.43;58.17;;;3.30;99.90;;;;;;5031027;28;20453;-60
2022/01/15 06:39:17;;;;;;;164.35;57.92;;;3.50;99.90;;;;;;5030462;28;20517;-60
2022/01/15 06:41:42;;;;;;;165.80;60.65;;;3.60;99.90;;;;;;5031901;28;20478;-60
2022/01/15 06:44:08;;;;;;;166.70;58.97;;;3.60;99.90;;;;;;5031905;28;20148;-60
2022/01/15 06:46:33;;;;;;;161.30;58.65;;;3.50;99.90;;;;;;5032070;28;20045;-60
2022/01/15 06:48:59;;;;;;;165.68;57.97;;;3.50;99.90;;;;;;5031976;28;20036;-60
2022/01/15 06:51:25;;;;;;;155.50;55.05;;;3.40;99.90;;;;;;5031367;28;20068;-60
2022/01/15 06:53:51;;;;;;;148.50;52.85;;;3.30;99.90;;;;;;5030538;28;20082;-60
2022/01/15 06:56:16;;;;;;;148.13;55.88;;;3.30;99.90;;;;;;5030523;28;20028;-59
2022/01/15 06:58:42;;;;;;;139.48;52.50;;;3.30;99.90;;;;;;5031280;28;20079;-59
2022/01/15 07:01:08;;;;;;;132.70;53.53;;;3.30;99.90;;;;;;5031680;28;20018;-59
2022/01/15 07:03:34;;;;;;;140.43;52.90;;;3.30;99.90;;;;;;5031517;28;20033;-59
2022/01/15 07:06:00;;;;;;;152.95;52.33;;;3.20;99.90;;;;;;5031416;28;20036;-59
2022/01/15 07:08:25;;;;;;;147.93;52.28;;;3.10;99.90;;;;;;5032335;28;20022;-59
2022/01/15 07:10:51;;;;;;;147.13;51.53;;;3.00;99.90;;;;;;5032902;28;20025;-60
2022/01/15 07:13:20;;;;;;;163.45;51.20;;;3.00;99.90;;;;;;5032385;28;20022;-59
2022/01/15 07:15:46;;;;;;;141.52;51.38;;;3.10;99.90;;;;;;5029896;28;20577;-59
2022/01/15 07:18:12;;;;;;;144.88;51.30;;;2.90;99.90;;;;;;5031618;28;20032;-59
2022/01/15 07:20:38;;;;;;;144.85;49.10;;;2.80;99.90;;;;;;5029622;28;20037;-60
2022/01/15 07:23:03;;;;;;;162.75;52.22;;;2.80;99.90;;;;;;5031075;28;20025;-60
2022/01/15 07:25:29;;;;;;;178.18;54.17;;;2.80;99.90;;;;;;5029824;28;20120;-60
2022/01/15 07:27:54;;;;;;;201.40;54.95;;;2.80;99.90;;;;;;5030780;28;20054;-60
2022/01/15 07:30:20;;;;;;;178.10;53.90;;;3.00;99.90;;;;;;5031249;28;20479;-60
2022/01/15 07:32:47;;;;;;;186.63;52.70;;;3.00;99.90;;;;;;5029871;28;20044;-60
2022/01/15 07:35:12;;;;;;;210.05;53.70;;;3.00;99.90;;;;;;5030764;28;20546;-60
2022/01/15 07:37:38;;;;;;;186.02;53.63;;;3.00;99.90;;;;;;5030984;28;20113;-60
2022/01/15 07:40:07;;;;;;;184.20;52.40;;;3.00;99.90;;;;;;5030647;28;20213;-60
2022/01/15 07:42:37;;;;;;;232.48;52.47;;;3.00;99.90;;;;;;5030993;28;20509;-60
2022/01/15 07:45:05;;;;;;;176.30;51.55;;;3.00;99.90;;;;;;5029934;28;20029;-59
2022/01/15 07:47:30;;;;;;;192.88;53.00;;;3.00;99.90;;;;;;5030466;28;20474;-59
2022/01/15 07:49:56;;;;;;;191.60;54.83;;;3.10;99.90;;;;;;5030239;28;20025;-59
2022/01/15 07:52:22;;;;;;;215.00;52.47;;;3.00;99.90;;;;;;5029887;28;20017;-59
2022/01/15 07:54:47;;;;;;;151.65;47.25;;;3.00;99.90;;;;;;5029174;28;20041;-59
2022/01/15 07:57:13;;;;;;;157.88;50.08;;;3.00;99.90;;;;;;5030818;28;20026;-59
2022/01/15 07:59:38;;;;;;;147.98;50.03;;;3.00;99.90;;;;;;5030585;28;20021;-59
2022/01/15 08:02:05;;;;;;;162.00;49.20;;;3.00;99.90;;;;;;5030611;28;20029;-59
2022/01/15 08:04:31;;;;;;;159.75;50.22;;;3.00;99.90;;;;;;5029186;28;20026;-59
2022/01/15 08:06:56;;;;;;;163.20;50.03;;;3.20;99.90;;;;;;5030700;28;20048;-59
2022/01/15 08:09:22;;;;;;;151.43;46.70;;;3.10;99.90;;;;;;5031560;28;20483;-59
2022/01/15 08:11:48;;;;;;;146.75;45.50;;;3.00;99.90;;;;;;5034152;28;20033;-59
2022/01/15 08:14:13;;;;;;;140.70;43.63;;;3.00;99.90;;;;;;5033231;28;20026;-59
2022/01/15 08:16:39;;;;;;;135.15;43.65;;;2.90;99.90;;;;;;5034374;28;20025;-59
2022/01/15 08:19:04;;;;;;;128.98;41.92;;;2.80;99.90;;;;;;5034437;28;20021;-59
2022/01/15 08:21:30;;;;;;;143.70;44.45;;;2.80;99.90;;;;;;5034664;28;20063;-59
2022/01/15 08:23:56;;;;;;;159.65;41.10;;;2.70;99.90;;;;;;5034683;28;20053;-59
2022/01/15 08:26:21;;;;;;;168.20;47.03;;;2.70;99.90;;;;;;5034559;28;20085;-59
2022/01/15 08:28:47;;;;;;;167.68;45.60;;;2.70;99.90;;;;;;5034013;28;20058;-59
2022/01/15 08:31:12;;;;;;;170.82;47.33;;;2.80;99.90;;;;;;5034683;28;20033;-59
2022/01/15 08:33:38;;;;;;;185.48;47.42;;;2.90;99.90;;;;;;5034791;28;20021;-59
2022/01/15 08:36:04;;;;;;;160.23;45.92;;;2.90;99.90;;;;;;5035040;28;20107;-59
2022/01/15 08:38:30;;;;;;;145.38;43.33;;;2.90;99.90;;;;;;5034756;28;20392;-59
2022/01/15 08:40:55;;;;;;;144.75;45.58;;;3.00;99.90;;;;;;5033549;28;20033;-59
2022/01/15 08:43:21;;;;;;;131.48;42.72;;;3.00;99.90;;;;;;5032782;28;20022;-59
2022/01/15 08:45:47;;;;;;;134.00;42.35;;;2.90;99.90;;;;;;5033682;28;20026;-59
2022/01/15 08:48:19;;;;;;;124.43;40.75;;;2.80;99.90;;;;;;5034173;28;20049;-59
2022/01/15 08:50:46;;;;;;;135.90;44.03;;;2.80;99.90;;;;;;5033729;28;20021;-59
2022/01/15 08:53:13;;;;;;;125.05;41.63;;;2.80;99.90;;;;;;5033787;28;20264;-59
2022/01/15 08:55:39;;;;;;;133.98;43.63;;;2.80;99.90;;;;;;5033106;28;20087;-59
2022/01/15 08:58:05;;;;;;;132.82;45.00;;;2.80;99.90;;;;;;5033395;28;20033;-59
2022/01/15 09:00:31;;;;;;;122.72;42.58;;;2.80;99.90;;;;;;5032292;28;20506;-59
2022/01/15 09:02:57;;;;;;;128.45;43.17;;;2.90;99.90;;;;;;5048772;28;20057;-59
2022/01/15 09:05:24;;;;;;;125.32;43.03;;;2.80;99.90;;;;;;5033240;28;20021;-60
2022/01/15 09:07:51;;;;;;;125.65;43.65;;;2.80;99.90;;;;;;5033794;28;20104;-59
2022/01/15 09:10:17;;;;;;;114.55;42.45;;;2.80;99.90;;;;;;5032074;28;20407;-59
2022/01/15 09:12:43;;;;;;;116.10;41.50;;;2.80;99.90;;;;;;5033936;28;20021;-59
2022/01/15 09:15:10;;;;;;;109.78;41.45;;;2.80;99.90;;;;;;5032589;28;20120;-59
2022/01/15 09:17:35;;;;;;;115.40;41.45;;;2.80;99.90;;;;;;5042715;28;20317;-59
2022/01/15 09:20:01;;;;;;;119.25;42.42;;;2.70;99.90;;;;;;5051153;28;20022;-59
2022/01/15 09:22:27;;;;;;;126.38;44.78;;;2.70;99.90;;;;;;5044812;28;20025;-59
2022/01/15 09:24:52;;;;;;;124.13;42.25;;;2.60;99.90;;;;;;5033434;28;20029;-59
2022/01/15 09:30:15;;;;;;;114.18;42.50;;;2.70;99.90;;;;;;5033165;28;20064;-59
2022/01/15 09:32:49;;;;;;;98.82;37.80;;;2.70;99.90;;;;;;5033134;28;20045;-59
2022/01/15 09:35:17;;;;;;;102.80;39.17;;;2.70;99.90;;;;;;5033171;28;20029;-59
2022/01/15 09:37:44;;;;;;;100.80;37.63;;;2.60;99.90;;;;;;5032530;28;20700;-59
2022/01/15 09:40:10;;;;;;;101.03;40.75;;;2.70;99.90;;;;;;5033087;28;20025;-59
2022/01/15 09:42:38;;;;;;;98.63;40.15;;;2.60;99.90;;;;;;5033120;28;20022;-59
2022/01/15 09:45:06;;;;;;;110.72;41.70;;;2.60;99.90;;;;;;5033940;28;20036;-59
2022/01/15 09:47:32;;;;;;;106.45;42.30;;;2.60;99.90;;;;;;5031745;28;20061;-59
2022/01/15 09:49:59;;;;;;;102.78;42.88;;;2.60;99.90;;;;;;5031800;28;20037;-59
2022/01/15 09:52:25;;;;;;;90.60;38.33;;;2.70;99.90;;;;;;5032226;28;20022;-59
2022/01/15 09:54:51;;;;;;;91.10;39.65;;;2.70;99.90;;;;;;5032243;28;20456;-59
2022/01/15 09:57:18;;;;;;;87.60;37.20;;;2.70;99.90;;;;;;5033078;28;20032;-59
2022/01/15 09:59:44;;;;;;;91.35;42.03;;;2.80;99.90;;;;;;5033236;28;20108;-59
2022/01/15 10:02:09;;;;;;;91.05;37.70;;;3.00;99.90;;;;;;5032914;28;20025;-59
2022/01/15 10:04:35;;;;;;;80.50;36.92;;;3.00;99.90;;;;;;5032158;28;20022;-59
2022/01/15 10:07:22;;;;;;;88.65;39.55;;;2.80;99.90;;;;;;5033020;28;20022;-59
2022/01/15 10:09:49;;;;;;;85.38;38.75;;;2.80;99.90;;;;;;5033145;28;20430;-60
2022/01/15 10:12:34;;;;;;;92.18;39.75;;;2.90;99.90;;;;;;5032640;28;20079;-59
2022/01/15 10:15:05;;;;;;;91.00;35.53;;;2.90;99.90;;;;;;5032649;28;20267;-59
2022/01/15 10:17:36;;;;;;;78.55;35.45;;;3.00;99.90;;;;;;5032730;28;20030;-59
2022/01/15 10:20:05;;;;;;;71.65;34.08;;;2.90;99.90;;;;;;5032615;28;20620;-60
2022/01/15 10:22:32;;;;;;;66.10;32.13;;;2.90;99.90;;;;;;5032874;28;20017;-59
2022/01/15 10:25:11;;;;;;;68.28;33.78;;;2.90;99.90;;;;;;5034234;28;20017;-59
2022/01/15 10:27:45;;;;;;;66.47;32.50;;;2.80;99.90;;;;;;5032097;28;20055;-59
2022/01/15 10:30:19;;;;;;;62.10;32.00;;;2.90;99.90;;;;;;5032366;28;20490;-59
2022/01/15 10:32:57;;;;;;;63.35;31.35;;;2.90;99.90;;;;;;5031728;28;20030;-59
2022/01/15 10:35:25;;;;;;;66.65;32.67;;;2.80;99.90;;;;;;5032450;28;20506;-59
2022/01/15 10:37:52;;;;;;;73.38;34.95;;;2.60;99.90;;;;;;5032430;28;20026;-59
2022/01/15 10:40:22;;;;;;;68.43;34.20;;;2.60;99.90;;;;;;5028622;28;20072;-59
2022/01/15 10:42:56;;;;;;;68.47;34.45;;;2.80;99.90;;;;;;5020213;28;20387;-59
2022/01/15 10:45:23;;;;;;;65.72;31.67;;;2.90;99.90;;;;;;5014195;28;20448;-59
2022/01/15 10:47:53;;;;;;;66.28;33.30;;;3.00;99.90;;;;;;5013398;28;20037;-59
2022/01/15 10:50:33;;;;;;;65.10;34.92;;;2.90;99.90;;;;;;5011134;28;20061;-59
2022/01/15 10:53:06;;;;;;;65.25;34.28;;;2.80;99.90;;;;;;5010285;28;20034;-59
2022/01/15 10:55:33;;;;;;;52.00;29.33;;;3.00;99.90;;;;;;5012258;28;20068;-59
2022/01/15 10:58:04;;;;;;;50.00;28.65;;;3.50;99.90;;;;;;5012129;28;20411;-59
2022/01/15 11:00:50;;;;;;;49.38;28.95;;;3.70;99.90;;;;;;5012664;28;20026;-59
2022/01/15 11:03:17;;;;;;;49.55;29.52;;;3.80;99.90;;;;;;5012792;28;20022;-59
2022/01/15 11:05:51;;;;;;;52.30;27.58;;;3.60;99.90;;;;;;5021355;28;20036;-59
2022/01/15 11:08:26;;;;;;;55.22;31.35;;;3.40;99.90;;;;;;5012817;28;20022;-59
2022/01/15 11:11:01;;;;;;;55.97;31.73;;;3.30;99.90;;;;;;5012311;28;20030;-59
2022/01/15 11:13:29;;;;;;;53.72;28.60;;;3.30;99.90;;;;;;5012582;28;20034;-59
2022/01/15 11:16:00;;;;;;;60.03;32.30;;;3.30;99.90;;;;;;5012132;28;20028;-59
2022/01/15 11:18:54;;;;;;;53.45;29.83;;;3.20;99.90;;;;;;5011051;28;20038;-59
2022/01/15 11:21:21;;;;;;;45.80;27.15;;;3.30;99.90;;;;;;5008665;28;20034;-59
2022/01/15 11:23:49;;;;;;;50.03;29.20;;;3.30;99.90;;;;;;5011612;28;20030;-59
2022/01/15 11:26:24;;;;;;;44.03;26.52;;;3.30;99.90;;;;;;5012563;28;20038;-59
2022/01/15 11:28:50;;;;;;;45.45;26.58;;;3.30;99.90;;;;;;5012423;28;20129;-59
2022/01/15 11:31:21;;;;;;;46.30;27.52;;;3.30;99.90;;;;;;5010874;28;20030;-59
2022/01/15 11:33:50;;;;;;;44.92;26.67;;;3.20;99.90;;;;;;5010509;28;20121;-59
2022/01/15 11:36:31;;;;;;;51.53;28.95;;;3.20;99.90;;;;;;5011770;28;20026;-59
2022/01/15 11:38:58;;;;;;;50.75;29.83;;;3.30;99.90;;;;;;5012726;28;20467;-59
2022/01/15 11:41:26;;;;;;;49.53;29.02;;;3.20;99.90;;;;;;5011907;28;20026;-59
2022/01/15 11:43:57;;;;;;;46.65;27.85;;;3.30;99.90;;;;;;5010846;28;20041;-59
2022/01/15 11:46:40;;;;;;;52.38;29.27;;;3.40;99.90;;;;;;5011040;28;20030;-59
2022/01/15 11:49:28;;;;;;;48.25;28.35;;;3.20;99.90;;;;;;5010816;28;20029;-59
2022/01/15 11:52:08;;;;;;;52.28;29.48;;;3.20;99.90;;;;;;5011130;28;20104;-59
2022/01/15 11:54:36;;;;;;;52.15;30.20;;;3.20;99.90;;;;;;5011375;28;20022;-59
2022/01/15 11:57:03;;;;;;;49.97;30.80;;;3.40;99.90;;;;;;5011119;28;20033;-59
2022/01/15 11:59:28;;;;;;;49.35;29.65;;;3.50;99.90;;;;;;5010935;28;20511;-59
2022/01/15 12:01:56;;;;;;;49.95;30.58;;;3.60;99.90;;;;;;5010186;28;20060;-59
2022/01/15 12:04:30;;;;;;;53.03;29.85;;;3.70;99.90;;;;;;5011084;28;20026;-59
2022/01/15 12:07:05;;;;;;;47.60;29.17;;;3.90;99.90;;;;;;5009973;28;20041;-59
2022/01/15 12:09:45;;;;;;;44.00;27.02;;;4.40;99.90;;;;;;5015121;28;20041;-60
2022/01/15 12:12:23;;;;;;;42.08;25.75;;;5.00;99.90;;;;;;5014008;28;20034;-59
2022/01/15 12:15:06;;;;;;;38.67;24.35;;;5.20;99.90;;;;;;5015788;28;20363;-59
2022/01/15 12:17:35;;;;;;;38.60;24.80;;;5.30;99.90;;;;;;5011642;28;20022;-60
2022/01/15 12:20:05;;;;;;;34.20;22.67;;;6.20;99.90;;;;;;5013039;28;20033;-60
2022/01/15 12:22:43;;;;;;;30.35;21.70;;;7.30;99.90;;;;;;5011658;28;20025;-60
2022/01/15 12:25:36;;;;;;;33.50;22.33;;;7.50;99.90;;;;;;5011629;28;20430;-60
2022/01/15 12:28:06;;;;;;;;;;;6.90;99.90;;;;;;5012002;28;20060;-60
2022/01/15 12:30:40;;;;;;;36.42;23.75;;;6.10;99.90;;;;;;5011356;28;19920;-60
2022/01/15 12:33:07;;;;;;;32.70;23.40;;;6.30;99.90;;;;;;5009659;28;20018;-60
2022/01/15 12:35:36;;;;;;;36.28;22.63;;;6.90;99.90;;;;;;5010942;28;20069;-60
2022/01/15 12:38:21;;;;;;;29.80;20.98;;;7.90;99.90;;;;;;5011028;28;20033;-60
2022/01/15 12:40:54;;;;;;;29.80;20.90;;;8.50;99.90;;;;;;5009729;28;20411;-60
2022/01/15 12:43:28;;;;;;;;;;;8.00;99.90;;;;;;5011753;28;20025;-60
2022/01/15 12:45:57;;;;;;;29.40;20.17;;;7.80;99.90;;;;;;5011011;28;19915;-60
2022/01/15 12:48:26;;;;;;;26.40;19.45;;;8.00;99.90;;;;;;5010384;28;20033;-61
2022/01/15 12:50:57;;;;;;;23.83;18.65;;;9.20;99.90;;;;;;5010000;28;20076;-60
2022/01/15 12:53:28;;;;;;;25.90;19.20;;;9.80;99.90;;;;;;5010932;28;20046;-60
2022/01/15 12:55:54;;;;;;;22.83;17.75;;;9.80;99.90;;;;;;5011903;28;20340;-60
2022/01/15 12:58:22;;;;;;;23.20;18.60;;;10.60;99.90;;;;;;5013873;28;20018;-60